Time;durP1;ratioP1;P1;durP2;ratioP2;P2;SDS_P1;SDS_P2;PMS_P1;PMS_P2;Temp;Humidity;BMP_temperature;BMP_pressure;BME280_temperature;BME280_humidity;BME280_pressure;Samples;Min_cycle;Max_cycle;Signal;HPM_P1;HPM_P2
2023/12/14 00:03:50;;;;;;;2.88;1.90;;;17.50;65.90;;;;;;4950231;23;20664;-84
2023/12/14 00:06:16;;;;;;;2.13;1.70;;;17.50;65.90;;;;;;4919466;29;20335;-83
2023/12/14 00:08:42;;;;;;;3.25;1.65;;;17.50;65.80;;;;;;4920776;29;20169;-84
2023/12/14 00:11:08;;;;;;;3.00;1.50;;;17.50;65.40;;;;;;4935829;29;20244;-83
2023/12/14 00:13:34;;;;;;;2.08;1.60;;;17.50;66.10;;;;;;4920199;29;20165;-84
2023/12/14 00:16:00;;;;;;;2.25;1.50;;;17.50;66.00;;;;;;4914837;23;20234;-84
2023/12/14 00:18:26;;;;;;;3.33;1.85;;;17.40;66.30;;;;;;4896823;29;20199;-84
2023/12/14 00:20:53;;;;;;;2.83;1.90;;;17.50;65.70;;;;;;4898458;29;20163;-84
2023/12/14 00:25:45;;;;;;;4.10;1.80;;;17.50;65.60;;;;;;4939472;23;20248;-83
2023/12/14 00:28:10;;;;;;;3.42;1.60;;;17.50;66.10;;;;;;4901143;29;20684;-83
2023/12/14 00:30:36;;;;;;;1.90;1.40;;;17.50;66.00;;;;;;4914055;29;20183;-83
2023/12/14 00:33:02;;;;;;;2.10;1.60;;;17.40;65.70;;;;;;4928877;29;20229;-84
2023/12/14 00:35:28;;;;;;;2.13;1.42;;;17.40;65.80;;;;;;4936964;29;20651;-84
2023/12/14 00:37:54;;;;;;;3.33;1.70;;;17.40;65.90;;;;;;4936852;29;20187;-84
2023/12/14 00:40:20;;;;;;;2.50;1.80;;;17.40;66.10;;;;;;4952409;29;20181;-83
2023/12/14 00:42:46;;;;;;;3.33;1.92;;;17.40;65.80;;;;;;4926659;29;20190;-84
2023/12/14 00:45:11;;;;;;;2.92;1.77;;;17.40;65.90;;;;;;4936872;29;20158;-84
2023/12/14 00:47:37;;;;;;;2.53;2.03;;;17.40;65.50;;;;;;4936736;29;20555;-84
2023/12/14 00:50:04;;;;;;;4.80;1.63;;;17.40;65.90;;;;;;4936821;29;20562;-84
2023/12/14 00:52:30;;;;;;;3.25;1.67;;;17.40;66.00;;;;;;4936629;29;20586;-84
2023/12/14 00:54:56;;;;;;;1.83;1.45;;;17.30;66.00;;;;;;4921033;29;20257;-84
2023/12/14 00:57:22;;;;;;;2.95;1.40;;;17.40;66.00;;;;;;4952224;29;20169;-84
2023/12/14 00:59:47;;;;;;;2.40;1.52;;;17.40;66.10;;;;;;4937494;29;20225;-84
2023/12/14 01:02:13;;;;;;;3.95;1.80;;;17.40;66.00;;;;;;4935392;29;20216;-84
2023/12/14 01:04:40;;;;;;;2.83;1.70;;;17.40;65.90;;;;;;4919983;29;20674;-84
2023/12/14 01:07:06;;;;;;;2.00;1.42;;;17.40;65.80;;;;;;4939648;29;20161;-84
2023/12/14 01:09:31;;;;;;;2.40;1.60;;;17.30;65.60;;;;;;4911902;29;20171;-84
2023/12/14 01:11:57;;;;;;;2.03;1.58;;;17.50;66.00;;;;;;4935611;29;20645;-84
2023/12/14 01:14:23;;;;;;;2.28;1.67;;;17.40;65.50;;;;;;4934531;29;20249;-84
2023/12/14 01:16:49;;;;;;;2.72;1.80;;;17.40;65.60;;;;;;4904361;29;20641;-85
2023/12/14 01:19:15;;;;;;;1.88;1.50;;;17.40;65.60;;;;;;4945162;29;20261;-85
2023/12/14 01:21:41;;;;;;;1.75;1.40;;;17.40;65.70;;;;;;4935902;29;20182;-85
2023/12/14 01:24:07;;;;;;;2.53;1.85;;;17.40;65.60;;;;;;4916789;29;20229;-84
2023/12/14 01:26:33;;;;;;;3.45;1.90;;;17.40;65.80;;;;;;4936312;29;20192;-84
2023/12/14 01:28:59;;;;;;;2.38;1.60;;;17.30;65.90;;;;;;4904234;29;20182;-84
2023/12/14 01:31:26;;;;;;;2.85;2.05;;;17.40;65.70;;;;;;4902841;29;20552;-83
2023/12/14 01:33:52;;;;;;;2.17;1.67;;;17.30;65.80;;;;;;4935603;29;20177;-84
2023/12/14 01:36:25;;;;;;;2.75;1.92;;;17.30;65.70;;;;;;4944718;23;20249;-84
2023/12/14 01:38:51;;;;;;;2.90;1.73;;;17.40;65.80;;;;;;4939431;29;20261;-84
2023/12/14 01:41:17;;;;;;;3.25;1.70;;;17.40;65.60;;;;;;4923278;29;20639;-84
2023/12/14 01:46:08;;;;;;;1.73;1.40;;;17.40;66.00;;;;;;4978712;23;20252;-84
2023/12/14 01:48:34;;;;;;;1.95;1.67;;;17.30;66.00;;;;;;4922950;29;20173;-85
2023/12/14 01:51:02;;;;;;;3.13;1.60;;;17.30;65.80;;;;;;4911185;23;20241;-84
2023/12/14 01:53:28;;;;;;;1.95;1.70;;;17.30;65.70;;;;;;4903518;29;20680;-84
2023/12/14 01:55:54;;;;;;;2.38;1.60;;;17.40;65.50;;;;;;4934771;29;20229;-84
2023/12/14 01:58:21;;;;;;;2.47;1.77;;;17.30;65.80;;;;;;4920151;29;20166;-84
2023/12/14 02:00:52;;;;;;;2.75;1.73;;;17.30;65.60;;;;;;4936725;29;20242;-85
2023/12/14 02:03:18;;;;;;;2.85;2.00;;;17.30;65.60;;;;;;4919743;29;20210;-83
2023/12/14 02:05:44;;;;;;;2.15;1.70;;;17.30;65.40;;;;;;4919975;29;20166;-84
2023/12/14 02:08:10;;;;;;;3.38;1.83;;;17.30;65.60;;;;;;4919381;29;20265;-84
2023/12/14 02:10:36;;;;;;;2.97;1.80;;;17.30;65.50;;;;;;4919529;29;20170;-84
2023/12/14 02:13:02;;;;;;;2.55;1.80;;;17.30;65.50;;;;;;4934404;23;20600;-84
2023/12/14 02:15:28;;;;;;;2.33;1.80;;;17.30;65.50;;;;;;4917870;29;20188;-84
2023/12/14 02:17:54;;;;;;;4.65;1.85;;;17.30;65.60;;;;;;4924052;29;20542;-83
2023/12/14 02:20:20;;;;;;;2.47;1.73;;;17.20;65.50;;;;;;4922066;29;20204;-84
2023/12/14 02:27:48;;;;;;;1.90;1.70;;;17.30;65.10;;;;;;4967765;23;20237;-84
2023/12/14 02:30:14;;;;;;;3.08;1.90;;;17.30;65.40;;;;;;4918561;23;20709;-85
2023/12/14 02:32:40;;;;;;;2.03;1.63;;;17.30;65.50;;;;;;4865671;29;20232;-85
2023/12/14 02:35:07;;;;;;;1.83;1.50;;;17.20;65.50;;;;;;4877936;29;20176;-84
2023/12/14 02:37:33;;;;;;;1.98;1.73;;;17.20;65.80;;;;;;4878038;29;20305;-84
2023/12/14 02:40:01;;;;;;;2.30;1.55;;;17.30;65.90;;;;;;4878648;29;20196;-84
2023/12/14 02:42:26;;;;;;;2.13;1.70;;;17.20;65.40;;;;;;4846167;29;20188;-84
2023/12/14 02:44:54;;;;;;;2.05;1.30;;;17.30;66.30;;;;;;4881953;29;20171;-84
2023/12/14 02:47:19;;;;;;;2.05;1.70;;;17.30;65.00;;;;;;4896985;29;20578;-85
2023/12/14 02:49:45;;;;;;;2.88;1.65;;;17.30;65.40;;;;;;4898368;29;20168;-84
2023/12/14 02:52:11;;;;;;;2.28;1.70;;;17.30;65.70;;;;;;4895153;29;20669;-84
2023/12/14 02:54:39;;;;;;;2.03;1.63;;;17.20;65.50;;;;;;4881130;29;20183;-85
2023/12/14 02:57:06;;;;;;;2.42;1.88;;;17.30;65.20;;;;;;4902752;29;20176;-84
2023/12/14 03:01:59;;;;;;;2.03;1.70;;;17.20;64.80;;;;;;4967658;23;20660;-84
2023/12/14 03:04:25;;;;;;;3.05;2.03;;;17.30;65.00;;;;;;4888772;29;20193;-84
2023/12/14 03:06:51;;;;;;;2.22;1.83;;;17.30;65.20;;;;;;4936496;28;20533;-84
2023/12/14 03:09:18;;;;;;;2.30;1.90;;;17.30;65.30;;;;;;4919962;29;20166;-85
2023/12/14 03:11:45;;;;;;;2.65;1.50;;;17.30;65.10;;;;;;4936997;29;20578;-84
2023/12/14 03:14:11;;;;;;;2.10;1.52;;;17.30;64.60;;;;;;4936682;29;20173;-84
2023/12/14 03:16:36;;;;;;;1.80;1.60;;;17.30;65.20;;;;;;4935909;29;20162;-84
2023/12/14 03:19:03;;;;;;;2.65;1.90;;;17.20;65.20;;;;;;4935880;29;20242;-84
2023/12/14 03:21:29;;;;;;;1.85;1.65;;;17.20;65.20;;;;;;4921207;29;20173;-85
2023/12/14 03:23:55;;;;;;;2.38;1.88;;;17.20;65.00;;;;;;4937386;29;20158;-84
2023/12/14 03:26:21;;;;;;;2.30;1.67;;;17.20;65.20;;;;;;4936111;29;20284;-85
2023/12/14 03:28:47;;;;;;;3.65;1.77;;;17.20;65.60;;;;;;4937317;29;20216;-85
2023/12/14 03:31:13;;;;;;;2.55;1.90;;;17.20;65.40;;;;;;4937522;29;20161;-85
2023/12/14 03:33:39;;;;;;;2.88;2.05;;;17.20;65.50;;;;;;4921228;29;20591;-84
2023/12/14 03:36:05;;;;;;;2.20;1.80;;;17.20;65.30;;;;;;4921990;29;20165;-83
2023/12/14 03:38:31;;;;;;;2.22;1.73;;;17.20;65.20;;;;;;4920603;29;20153;-84
2023/12/14 03:40:57;;;;;;;1.90;1.65;;;17.10;65.20;;;;;;4918507;29;20177;-84
2023/12/14 03:43:23;;;;;;;2.22;1.65;;;17.20;65.10;;;;;;4921105;29;20237;-84
2023/12/14 03:45:49;;;;;;;2.42;1.90;;;17.20;65.30;;;;;;4920122;29;20173;-85
2023/12/14 03:48:15;;;;;;;2.80;1.90;;;17.20;65.20;;;;;;4921197;29;20533;-84
2023/12/14 03:50:40;;;;;;;1.85;1.60;;;17.20;65.50;;;;;;4930602;29;20696;-85
2023/12/14 03:53:06;;;;;;;1.80;1.48;;;17.10;65.20;;;;;;4937325;29;20212;-84
2023/12/14 03:55:32;;;;;;;2.03;1.55;;;17.20;64.90;;;;;;4921321;29;20540;-84
2023/12/14 03:57:58;;;;;;;2.53;1.60;;;17.20;64.90;;;;;;4937144;29;20629;-84
2023/12/14 04:00:24;;;;;;;2.28;1.70;;;17.10;65.10;;;;;;4937042;29;20257;-83
2023/12/14 04:02:50;;;;;;;2.13;1.67;;;17.10;64.80;;;;;;4953634;29;20193;-83
2023/12/14 04:05:16;;;;;;;2.50;1.90;;;17.20;65.00;;;;;;4936851;29;20181;-83
2023/12/14 04:07:42;;;;;;;2.88;1.70;;;17.20;65.40;;;;;;4937124;29;20158;-83
2023/12/14 04:10:10;;;;;;;2.47;1.80;;;17.20;65.00;;;;;;4921049;29;20158;-83
2023/12/14 04:12:36;;;;;;;2.70;1.92;;;17.20;65.30;;;;;;4937118;29;20169;-84
2023/12/14 04:17:55;;;;;;;1.95;1.50;;;17.10;65.30;;;;;;4913290;23;20240;-84
2023/12/14 04:20:21;;;;;;;2.45;1.85;;;17.10;65.20;;;;;;4915731;29;20349;-84
2023/12/14 04:22:48;;;;;;;2.38;1.60;;;17.10;65.50;;;;;;4918754;29;20182;-84
2023/12/14 04:25:14;;;;;;;2.08;1.80;;;17.10;65.50;;;;;;4919950;29;20155;-84
2023/12/14 04:27:39;;;;;;;3.15;1.98;;;17.10;65.10;;;;;;4933921;29;20169;-83
2023/12/14 04:30:10;;;;;;;2.50;1.90;;;17.20;65.10;;;;;;4902582;29;20253;-84
2023/12/14 04:32:36;;;;;;;2.63;1.80;;;17.10;65.00;;;;;;4918496;29;20863;-83
2023/12/14 04:35:02;;;;;;;1.63;1.52;;;17.10;65.00;;;;;;4902901;29;20166;-83
2023/12/14 04:37:30;;;;;;;2.00;1.80;;;17.20;65.40;;;;;;4918484;29;20163;-83
2023/12/14 04:39:55;;;;;;;2.35;1.77;;;17.10;65.10;;;;;;4898512;29;20303;-84
2023/12/14 04:42:21;;;;;;;2.33;1.63;;;17.10;65.00;;;;;;4899306;29;20239;-84
2023/12/14 04:44:47;;;;;;;3.10;1.85;;;17.20;65.90;;;;;;4915717;29;20284;-83
2023/12/14 04:47:13;;;;;;;2.40;1.60;;;17.10;65.10;;;;;;4901160;29;20242;-84
2023/12/14 04:49:38;;;;;;;2.00;1.80;;;17.10;65.20;;;;;;4920764;29;20637;-84
2023/12/14 04:52:05;;;;;;;2.03;1.83;;;17.10;65.10;;;;;;4935051;23;20696;-83
2023/12/14 04:54:31;;;;;;;2.13;1.92;;;17.10;65.20;;;;;;4921155;29;20158;-84
2023/12/14 04:56:57;;;;;;;2.83;2.08;;;17.10;64.60;;;;;;4921018;29;20162;-83
2023/12/14 04:59:27;;;;;;;3.80;1.70;;;17.10;65.20;;;;;;4920769;29;20668;-83
2023/12/14 05:01:53;;;;;;;3.25;1.90;;;17.10;64.90;;;;;;4878757;29;20221;-84
2023/12/14 05:04:19;;;;;;;2.13;1.92;;;17.10;64.80;;;;;;4920553;29;20182;-84
2023/12/14 05:06:44;;;;;;;1.85;1.65;;;17.10;65.00;;;;;;4930268;29;20651;-84
2023/12/14 05:09:11;;;;;;;1.90;1.65;;;17.10;65.00;;;;;;4938072;23;20230;-84
2023/12/14 05:11:40;;;;;;;2.40;1.60;;;17.10;65.10;;;;;;4904779;29;20224;-84
2023/12/14 05:14:06;;;;;;;2.72;1.90;;;17.10;65.20;;;;;;4905317;29;20205;-84
2023/12/14 05:16:31;;;;;;;2.75;1.85;;;17.10;65.10;;;;;;4920680;29;20613;-84
2023/12/14 05:18:57;;;;;;;2.10;1.90;;;17.10;65.10;;;;;;4904794;29;20205;-84
2023/12/14 05:21:23;;;;;;;2.28;1.83;;;17.00;64.90;;;;;;4889225;29;20170;-84
2023/12/14 05:23:49;;;;;;;1.85;1.50;;;17.10;65.20;;;;;;4905463;29;20704;-84
2023/12/14 05:26:15;;;;;;;2.58;1.75;;;17.10;65.00;;;;;;4920984;29;20170;-85
2023/12/14 05:28:40;;;;;;;2.47;1.80;;;17.10;65.00;;;;;;4904823;29;20564;-84
2023/12/14 05:31:06;;;;;;;1.98;1.70;;;17.20;65.20;;;;;;4919769;29;20146;-83
2023/12/14 05:33:37;;;;;;;2.53;1.70;;;17.10;64.90;;;;;;4920890;29;20678;-84
2023/12/14 05:36:05;;;;;;;2.08;1.70;;;17.10;65.10;;;;;;4921013;29;20197;-84
2023/12/14 05:38:31;;;;;;;4.05;1.90;;;17.10;64.90;;;;;;4902498;29;20224;-84
2023/12/14 05:40:57;;;;;;;2.92;1.88;;;17.10;64.90;;;;;;4932836;23;20241;-83
2023/12/14 05:43:23;;;;;;;2.22;1.90;;;17.10;64.90;;;;;;4969936;23;20246;-84
2023/12/14 05:45:48;;;;;;;2.10;1.90;;;17.10;64.90;;;;;;4938102;29;20193;-83
2023/12/14 05:48:14;;;;;;;2.22;1.73;;;17.10;65.20;;;;;;4939213;29;20538;-84
2023/12/14 05:50:44;;;;;;;2.70;1.73;;;17.10;65.10;;;;;;4950871;23;20823;-85
2023/12/14 05:53:10;;;;;;;2.70;1.80;;;17.10;64.90;;;;;;4888109;29;20273;-84
2023/12/14 05:55:36;;;;;;;2.92;2.10;;;17.00;64.80;;;;;;4903736;29;20257;-84
2023/12/14 05:58:02;;;;;;;3.33;2.08;;;17.10;64.90;;;;;;4904412;29;20622;-84
2023/12/14 06:00:28;;;;;;;3.88;1.88;;;17.10;65.00;;;;;;4904821;29;20196;-84
2023/12/14 06:02:53;;;;;;;2.15;1.80;;;17.10;64.70;;;;;;4937837;29;20237;-84
2023/12/14 06:07:49;;;;;;;2.03;1.75;;;17.10;65.00;;;;;;4935229;29;20238;-85
2023/12/14 06:10:15;;;;;;;2.78;1.98;;;17.10;64.90;;;;;;4904952;29;20188;-85
2023/12/14 06:12:41;;;;;;;1.95;1.77;;;17.10;64.60;;;;;;4904575;29;20154;-84
2023/12/14 06:15:07;;;;;;;2.38;1.92;;;17.10;64.50;;;;;;4921918;29;20225;-85
2023/12/14 06:17:33;;;;;;;3.55;1.98;;;17.10;64.60;;;;;;4918780;29;20167;-85
2023/12/14 06:19:59;;;;;;;2.30;1.80;;;17.10;65.20;;;;;;4918674;29;20692;-85
2023/12/14 06:22:26;;;;;;;1.90;1.75;;;17.10;64.60;;;;;;4920169;29;20613;-85
2023/12/14 06:24:52;;;;;;;2.45;1.90;;;17.10;64.50;;;;;;4904541;29;20166;-85
2023/12/14 06:27:18;;;;;;;2.45;1.88;;;17.10;64.70;;;;;;4919760;29;20161;-86
2023/12/14 06:29:44;;;;;;;2.15;1.60;;;17.10;64.60;;;;;;4903059;29;20185;-85
2023/12/14 06:32:10;;;;;;;2.15;1.88;;;17.10;64.50;;;;;;4919392;29;20159;-85
2023/12/14 06:34:36;;;;;;;2.80;1.85;;;17.10;65.40;;;;;;4918421;29;20162;-85
2023/12/14 06:39:32;;;;;;;2.25;1.80;;;17.00;64.50;;;;;;5080227;23;20755;-84
2023/12/14 06:41:57;;;;;;;2.53;1.60;;;17.00;64.30;;;;;;4921668;29;20177;-84
2023/12/14 06:44:26;;;;;;;2.40;2.00;;;17.10;64.30;;;;;;4922582;29;20177;-85
2023/12/14 06:46:52;;;;;;;3.05;1.90;;;17.10;64.60;;;;;;4939118;29;20546;-84
2023/12/14 06:49:17;;;;;;;2.58;1.95;;;17.10;64.70;;;;;;4939034;29;20153;-83
2023/12/14 06:51:44;;;;;;;3.28;1.95;;;17.00;64.50;;;;;;4938432;29;20166;-84
2023/12/14 06:54:10;;;;;;;1.92;1.70;;;17.00;64.10;;;;;;4938319;29;20176;-83
2023/12/14 06:56:37;;;;;;;2.25;1.80;;;17.00;64.50;;;;;;4941945;29;20248;-84
2023/12/14 06:59:03;;;;;;;3.00;2.03;;;17.00;64.30;;;;;;4956058;29;20240;-84
2023/12/14 07:01:29;;;;;;;2.45;1.75;;;17.00;64.30;;;;;;4956849;29;20181;-84
2023/12/14 07:03:55;;;;;;;2.00;1.80;;;17.00;64.50;;;;;;4955371;29;20200;-83
2023/12/14 07:06:21;;;;;;;3.72;1.98;;;17.00;64.50;;;;;;4955471;29;20169;-84
2023/12/14 07:08:49;;;;;;;1.98;1.63;;;17.00;64.50;;;;;;4939847;29;20165;-84
2023/12/14 07:11:15;;;;;;;1.95;1.70;;;17.00;64.20;;;;;;4907205;29;20189;-83
2023/12/14 07:13:42;;;;;;;1.85;1.52;;;17.00;64.30;;;;;;4923894;29;20203;-84
2023/12/14 07:16:11;;;;;;;2.17;1.83;;;17.00;64.00;;;;;;4928926;23;20237;-84
2023/12/14 07:18:37;;;;;;;2.00;1.70;;;17.00;64.20;;;;;;4940236;28;20208;-83
2023/12/14 07:21:03;;;;;;;2.28;1.77;;;17.10;63.40;;;;;;4941916;28;20168;-84
2023/12/14 07:23:30;;;;;;;2.05;1.80;;;17.10;62.80;;;;;;4947562;29;20302;-84
2023/12/14 07:25:59;;;;;;;1.60;1.50;;;17.20;62.60;;;;;;4937711;29;20234;-84
2023/12/14 07:28:43;;;;;;;3.60;1.83;;;17.20;63.10;;;;;;4906116;29;20182;-84
2023/12/14 07:31:09;;;;;;;2.85;1.80;;;17.20;62.50;;;;;;4879596;29;20266;-84
2023/12/14 07:33:35;;;;;;;1.95;1.75;;;17.20;62.90;;;;;;4864514;29;20758;-83
2023/12/14 07:36:19;;;;;;;3.42;1.83;;;17.20;62.70;;;;;;4879924;29;20179;-84
2023/12/14 07:38:45;;;;;;;2.25;1.75;;;17.20;63.20;;;;;;4882346;29;20215;-85
2023/12/14 07:41:11;;;;;;;2.10;1.90;;;17.10;63.50;;;;;;4879184;29;20545;-84
2023/12/14 07:43:38;;;;;;;2.33;1.80;;;17.20;63.30;;;;;;4880939;29;20179;-83
2023/12/14 07:46:04;;;;;;;2.25;1.80;;;17.10;63.20;;;;;;4845955;29;20305;-84
2023/12/14 07:48:30;;;;;;;2.25;2.03;;;17.10;63.70;;;;;;4963799;23;20323;-84
2023/12/14 07:51:00;;;;;;;1.70;1.60;;;17.10;63.70;;;;;;4941471;28;20598;-84
2023/12/14 07:53:39;;;;;;;;;;;;;;;;;;;;;
2023/12/14 07:56:05;;;;;;;3.38;1.90;;;17.10;63.40;;;;;;4946011;28;20180;-84
2023/12/14 07:58:31;;;;;;;2.10;1.70;;;17.10;62.90;;;;;;4942472;28;20791;-84
2023/12/14 08:00:57;;;;;;;1.70;1.58;;;17.20;62.30;;;;;;4926796;28;20252;-84
2023/12/14 08:03:23;;;;;;;2.15;1.80;;;17.20;62.30;;;;;;4974384;28;20173;-83
2023/12/14 08:05:49;;;;;;;1.63;1.30;;;17.20;62.20;;;;;;4967122;28;20256;-82
2023/12/14 08:08:22;;;;;;;2.10;1.70;;;17.20;61.80;;;;;;4938667;29;20204;-83
2023/12/14 08:10:49;;;;;;;2.17;1.52;;;17.30;61.70;;;;;;4938503;28;20185;-84
2023/12/14 08:13:15;;;;;;;2.22;1.65;;;17.30;61.40;;;;;;4941251;28;20169;-84
2023/12/14 08:15:40;;;;;;;2.15;1.80;;;17.30;61.40;;;;;;4941481;23;20608;-84
2023/12/14 08:18:07;;;;;;;3.30;1.80;;;17.30;61.40;;;;;;4919078;29;20673;-83
2023/12/14 08:20:33;;;;;;;1.95;1.70;;;17.30;61.10;;;;;;4936412;29;20248;-83
2023/12/14 08:22:59;;;;;;;2.92;1.75;;;17.40;61.00;;;;;;4904927;29;20187;-84
2023/12/14 08:25:26;;;;;;;1.60;1.50;;;17.40;61.80;;;;;;4884620;29;20173;-83
2023/12/14 08:27:53;;;;;;;2.25;1.90;;;17.30;61.60;;;;;;4890433;29;20195;-85
2023/12/14 08:30:23;;;;;;;1.98;1.52;;;17.30;61.10;;;;;;4907771;29;20186;-81
2023/12/14 08:32:49;;;;;;;1.90;1.50;;;17.40;60.60;;;;;;4903698;29;20182;-84
2023/12/14 08:35:41;;;;;;;2.05;1.75;;;17.40;59.90;;;;;;4903603;29;20178;-86
2023/12/14 08:38:07;;;;;;;3.30;1.70;;;17.50;59.90;;;;;;4922265;29;20608;-84
2023/12/14 08:40:34;;;;;;;2.00;1.67;;;17.50;59.00;;;;;;4910705;29;20237;-84
2023/12/14 08:43:00;;;;;;;2.10;1.73;;;17.60;59.80;;;;;;4884746;29;20234;-84
2023/12/14 08:45:26;;;;;;;2.00;1.80;;;17.60;59.60;;;;;;4903060;29;20170;-84
2023/12/14 08:47:53;;;;;;;2.45;1.50;;;17.60;59.50;;;;;;4903202;29;20170;-83
2023/12/14 08:50:23;;;;;;;1.55;1.45;;;17.60;61.10;;;;;;4918330;29;20190;-84
2023/12/14 08:52:50;;;;;;;1.98;1.42;;;17.60;59.60;;;;;;4885452;29;20208;-84
2023/12/14 08:55:16;;;;;;;2.30;1.77;;;17.70;59.40;;;;;;4916862;29;20182;-83
2023/12/14 08:57:42;;;;;;;1.95;1.70;;;17.60;59.90;;;;;;4918356;29;20185;-83
2023/12/14 09:00:08;;;;;;;3.05;1.50;;;17.60;60.20;;;;;;4917321;29;20230;-83
2023/12/14 09:02:35;;;;;;;2.88;1.80;;;17.60;60.90;;;;;;4902385;29;20166;-84
2023/12/14 09:07:37;;;;;;;1.90;1.45;;;17.60;60.90;;;;;;5171966;23;20241;-85
2023/12/14 09:10:04;;;;;;;2.25;1.65;;;17.60;58.70;;;;;;4926963;29;20161;-85
2023/12/14 09:12:34;;;;;;;1.60;1.50;;;17.60;60.50;;;;;;4942778;29;20177;-84
2023/12/14 09:15:00;;;;;;;1.77;1.30;;;17.80;58.10;;;;;;4927770;29;20165;-83
2023/12/14 09:17:31;;;;;;;2.72;1.75;;;17.70;58.60;;;;;;4943966;29;20246;-84
2023/12/14 09:19:58;;;;;;;2.83;1.80;;;17.70;59.10;;;;;;4928381;29;20208;-86
2023/12/14 09:22:26;;;;;;;3.15;1.90;;;17.80;59.70;;;;;;4936844;29;20208;-84
2023/12/14 09:24:52;;;;;;;3.03;1.70;;;17.70;59.50;;;;;;4955622;29;20153;-85
2023/12/14 09:27:19;;;;;;;3.00;1.90;;;17.80;58.60;;;;;;4954615;29;20184;-84
2023/12/14 09:29:45;;;;;;;3.47;1.80;;;17.80;59.40;;;;;;4890724;29;20236;-84
2023/12/14 09:32:11;;;;;;;2.72;1.55;;;17.70;60.10;;;;;;4937681;29;20178;-83
2023/12/14 09:34:37;;;;;;;2.63;1.65;;;17.80;59.30;;;;;;4938692;29;20189;-85
2023/12/14 09:37:03;;;;;;;6.97;1.77;;;17.80;59.60;;;;;;4909572;29;20268;-85
2023/12/14 09:39:29;;;;;;;4.40;2.10;;;17.80;59.40;;;;;;4954816;29;20839;-83
2023/12/14 09:42:06;;;;;;;3.15;1.70;;;17.80;58.80;;;;;;4910966;29;20173;-86
2023/12/14 09:44:32;;;;;;;3.25;1.58;;;17.80;59.80;;;;;;4903578;29;20197;-84
2023/12/14 09:46:59;;;;;;;4.60;1.60;;;17.80;59.80;;;;;;4902547;29;20191;-84
2023/12/14 09:49:29;;;;;;;8.95;1.65;;;17.80;59.30;;;;;;4887800;29;20179;-85
2023/12/14 09:51:56;;;;;;;3.90;1.63;;;17.80;59.40;;;;;;4888710;29;20199;-84
2023/12/14 09:54:22;;;;;;;2.38;1.63;;;17.90;59.50;;;;;;4887363;29;20325;-85
2023/12/14 09:56:48;;;;;;;3.10;1.67;;;17.80;58.90;;;;;;4887926;29;20215;-84
2023/12/14 09:59:15;;;;;;;3.33;2.10;;;17.90;59.10;;;;;;4888591;29;20218;-84
2023/12/14 10:01:42;;;;;;;4.35;1.83;;;17.80;59.70;;;;;;4890104;29;20163;-84
2023/12/14 10:04:13;;;;;;;2.00;1.67;;;17.90;59.40;;;;;;4888224;29;20163;-85
2023/12/14 10:06:40;;;;;;;2.30;1.60;;;17.90;59.20;;;;;;4885461;29;20247;-85
2023/12/14 10:09:09;;;;;;;2.83;2.00;;;17.90;59.80;;;;;;4884488;29;20191;-84
2023/12/14 10:11:38;;;;;;;2.08;1.60;;;17.90;59.30;;;;;;4889157;29;20187;-85
2023/12/14 10:14:24;;;;;;;3.47;1.60;;;18.00;59.20;;;;;;4904005;29;20669;-84
2023/12/14 10:16:50;;;;;;;2.20;1.58;;;18.00;59.50;;;;;;4901061;29;20183;-84
2023/12/14 10:21:55;;;;;;;4.80;1.52;;;18.00;59.00;;;;;;5051805;23;20242;-84
2023/12/14 10:24:21;;;;;;;3.28;1.83;;;18.00;58.50;;;;;;4917276;29;20217;-84
2023/12/14 10:26:47;;;;;;;5.53;1.63;;;18.00;58.50;;;;;;4902899;29;20587;-83
2023/12/14 10:29:22;;;;;;;3.40;1.80;;;18.00;59.00;;;;;;4918439;29;20261;-84
2023/12/14 10:31:48;;;;;;;2.63;1.58;;;18.00;58.80;;;;;;4873281;29;20264;-82
2023/12/14 10:34:14;;;;;;;1.83;1.40;;;18.00;58.40;;;;;;4918602;29;20227;-83
2023/12/14 10:36:46;;;;;;;3.70;1.45;;;18.00;59.50;;;;;;4934073;29;20162;-82
2023/12/14 10:39:13;;;;;;;4.50;1.40;;;18.00;58.50;;;;;;4916934;29;20207;-82
2023/12/14 10:41:39;;;;;;;2.90;1.60;;;17.90;60.50;;;;;;4919566;29;20185;-81
2023/12/14 10:44:05;;;;;;;2.38;1.65;;;17.90;59.90;;;;;;4904901;29;20154;-82
2023/12/14 10:46:32;;;;;;;2.78;1.65;;;17.90;60.20;;;;;;4921182;29;20170;-83
2023/12/14 10:48:57;;;;;;;2.97;1.65;;;17.90;60.40;;;;;;4918824;29;20162;-83
2023/12/14 10:51:24;;;;;;;1.77;1.40;;;17.90;59.50;;;;;;4932539;29;20163;-82
2023/12/14 10:53:51;;;;;;;1.70;1.25;;;18.00;59.00;;;;;;4932572;29;20258;-82
2023/12/14 10:56:17;;;;;;;2.55;1.58;;;18.00;58.30;;;;;;4913928;29;21082;-84
2023/12/14 10:58:46;;;;;;;3.22;1.40;;;18.00;58.50;;;;;;4910460;29;20187;-83
2023/12/14 11:03:50;;;;;;;2.78;1.52;;;18.00;57.60;;;;;;4930892;29;20229;-82
2023/12/14 11:06:30;;;;;;;3.88;1.42;;;18.00;59.20;;;;;;4934526;29;20158;-82
2023/12/14 11:09:05;;;;;;;6.15;1.50;;;18.00;58.70;;;;;;4905228;29;20186;-84
2023/12/14 11:11:46;;;;;;;3.78;1.50;;;18.10;59.20;;;;;;4914680;29;20218;-82
2023/12/14 11:14:13;;;;;;;1.60;1.40;;;18.00;58.70;;;;;;4927166;29;20229;-82
2023/12/14 11:16:44;;;;;;;2.67;1.60;;;17.90;58.60;;;;;;4928965;29;20174;-83
2023/12/14 11:19:26;;;;;;;1.92;1.50;;;18.00;58.80;;;;;;4932633;29;20197;-83
2023/12/14 11:22:12;;;;;;;2.90;1.40;;;18.00;58.40;;;;;;4917380;29;20162;-84
2023/12/14 11:24:43;;;;;;;2.13;1.58;;;18.00;59.60;;;;;;4914670;29;20159;-83
2023/12/14 11:27:11;;;;;;;2.28;1.50;;;18.00;58.70;;;;;;4914113;29;20167;-82
2023/12/14 11:29:38;;;;;;;1.95;1.38;;;18.00;58.50;;;;;;4914234;29;20257;-83
2023/12/14 11:32:05;;;;;;;2.13;1.50;;;17.90;58.10;;;;;;4906150;29;20174;-83
2023/12/14 11:34:31;;;;;;;2.40;1.55;;;18.00;58.90;;;;;;4915154;29;20198;-82
2023/12/14 11:36:57;;;;;;;1.70;1.45;;;18.00;58.10;;;;;;4901627;29;20193;-83
2023/12/14 11:39:23;;;;;;;1.60;1.40;;;18.00;58.00;;;;;;4917466;29;20202;-83
2023/12/14 11:42:04;;;;;;;3.80;1.92;;;17.90;60.00;;;;;;4932765;29;20176;-82
2023/12/14 11:44:30;;;;;;;1.45;1.33;;;17.90;59.80;;;;;;4932939;29;20803;-84
2023/12/14 11:46:56;;;;;;;2.00;1.33;;;17.90;58.90;;;;;;4933029;29;20206;-82
2023/12/14 11:49:25;;;;;;;2.22;1.45;;;17.90;59.00;;;;;;4917124;29;20158;-81
2023/12/14 11:51:53;;;;;;;3.97;1.38;;;17.90;58.90;;;;;;4934250;29;20594;-82
2023/12/14 11:54:19;;;;;;;2.28;1.50;;;18.00;58.70;;;;;;4917213;29;20240;-83
2023/12/14 11:56:48;;;;;;;2.42;1.52;;;17.90;58.40;;;;;;4917002;29;20536;-82
2023/12/14 11:59:20;;;;;;;3.33;1.77;;;18.00;58.80;;;;;;4932731;29;20277;-83
2023/12/14 12:01:58;;;;;;;2.13;1.52;;;17.90;58.50;;;;;;4873563;29;20221;-81
2023/12/14 12:04:24;;;;;;;2.67;1.70;;;18.00;58.90;;;;;;4915141;29;20192;-81
2023/12/14 12:06:50;;;;;;;3.25;1.40;;;18.00;58.50;;;;;;4914906;29;20260;-83
2023/12/14 12:09:35;;;;;;;1.42;1.25;;;18.00;58.10;;;;;;4930783;29;20178;-83
2023/12/14 12:12:09;;;;;;;2.50;1.58;;;17.90;59.00;;;;;;4895047;29;20212;-83
2023/12/14 12:14:35;;;;;;;2.88;1.50;;;18.00;58.80;;;;;;4919769;29;20173;-83
2023/12/14 12:17:01;;;;;;;3.10;1.35;;;18.00;57.90;;;;;;4937985;29;20250;-83
2023/12/14 12:19:27;;;;;;;2.55;1.27;;;18.00;58.10;;;;;;4932932;29;20200;-83
2023/12/14 12:21:53;;;;;;;3.05;1.50;;;18.00;58.20;;;;;;4920946;29;20249;-83
2023/12/14 12:24:19;;;;;;;2.90;1.48;;;18.10;58.60;;;;;;4901613;29;20626;-83
2023/12/14 12:26:53;;;;;;;7.88;1.65;;;18.00;58.20;;;;;;4930670;29;20661;-86
2023/12/14 12:29:19;;;;;;;1.88;1.35;;;18.00;59.00;;;;;;4917444;29;20169;-84
2023/12/14 12:31:46;;;;;;;2.25;1.40;;;18.00;58.60;;;;;;4901174;29;20680;-83
2023/12/14 12:34:12;;;;;;;2.10;1.52;;;18.00;57.80;;;;;;4933955;29;20591;-83
2023/12/14 12:40:07;;;;;;;2.08;1.27;;;17.90;58.10;;;;;;4789233;29;20238;-85
2023/12/14 12:42:48;;;;;;;;;;;;;;;;;;;;;
2023/12/14 12:45:27;;;;;;;2.95;1.40;;;18.10;58.00;;;;;;4801203;29;20193;-83
2023/12/14 12:47:53;;;;;;;2.53;1.70;;;18.00;58.20;;;;;;4790727;29;20384;-81
2023/12/14 12:50:28;;;;;;;3.53;1.25;;;18.00;57.60;;;;;;4806299;29;20225;-83
2023/12/14 13:03:28;;;;;;;1.90;1.40;;;18.10;59.20;;;;;;4958699;29;20248;-83
2023/12/14 13:05:54;;;;;;;5.20;1.77;;;18.20;57.80;;;;;;4927585;29;20228;-82
2023/12/14 13:08:30;;;;;;;2.05;1.33;;;18.20;57.30;;;;;;4945026;29;20161;-83
2023/12/14 13:11:03;;;;;;;1.50;1.15;;;18.10;57.80;;;;;;4943505;29;20203;-82
2023/12/14 13:13:31;;;;;;;2.75;1.60;;;18.10;57.70;;;;;;4924732;29;20224;-81
2023/12/14 13:16:06;;;;;;;2.53;1.23;;;18.10;59.20;;;;;;4958037;29;20217;-81
2023/12/14 13:18:57;;;;;;;3.30;1.08;;;18.10;59.40;;;;;;4903309;29;20259;-85
2023/12/14 13:24:59;;;;;;;2.70;1.33;;;18.20;60.20;;;;;;4862598;29;20224;-84
2023/12/14 13:27:37;;;;;;;2.42;1.30;;;18.20;60.10;;;;;;4846482;29;20241;-83
2023/12/14 13:30:04;;;;;;;3.25;1.42;;;18.10;60.20;;;;;;4838789;29;20578;-83
2023/12/14 13:32:33;;;;;;;1.70;1.20;;;18.10;59.50;;;;;;4809988;29;20628;-86
2023/12/14 13:34:59;;;;;;;5.50;1.40;;;18.20;59.30;;;;;;4808899;29;20546;-85
2023/12/14 13:37:28;;;;;;;2.13;1.58;;;18.20;58.80;;;;;;4825261;29;20193;-86